createdAt,value
2022-08-19T00:01:30.727Z,65.33
2022-08-19T00:04:03.096Z,65.51
2022-08-19T00:06:30.572Z,67.07
2022-08-19T00:08:58.854Z,68.48
2022-08-19T00:11:26.894Z,68.48
2022-08-19T00:13:54.264Z,67.67
2022-08-19T00:16:25.382Z,66.15
2022-08-19T00:18:54.477Z,65.06
2022-08-19T00:21:21.131Z,64.98
2022-08-19T00:23:48.243Z,64.79
2022-08-19T00:26:15.205Z,65.74
2022-08-19T00:28:42.101Z,65.60
2022-08-19T00:31:10.237Z,65.57
2022-08-19T00:33:36.838Z,65.72
2022-08-19T00:36:07.450Z,65.74
2022-08-19T00:38:37.208Z,65.17
2022-08-19T00:41:06.221Z,65.31
2022-08-19T00:43:33.102Z,65.87
2022-08-19T00:45:59.782Z,65.53
2022-08-19T00:48:26.373Z,65.14
2022-08-19T00:50:55.212Z,64.22
2022-08-19T00:53:25.582Z,64.14
2022-08-19T00:55:55.918Z,64.08
2022-08-19T00:58:28.385Z,63.27
2022-08-19T01:00:55.068Z,62.87
2022-08-19T01:03:23.316Z,62.43
2022-08-19T01:05:51.978Z,63.10
2022-08-19T01:08:19.749Z,62.55
2022-08-19T01:10:50.737Z,62.60
2022-08-19T01:13:21.583Z,61.77
2022-08-19T01:15:53.073Z,62.17
2022-08-19T01:18:21.614Z,61.91
2022-08-19T01:20:48.337Z,61.79
2022-08-19T01:23:16.533Z,61.90
2022-08-19T01:25:48.028Z,62.19
2022-08-19T01:28:33.735Z,61.72
2022-08-19T01:31:01.129Z,61.45
2022-08-19T01:33:34.955Z,62.24
2022-08-19T01:36:11.697Z,62.44
2022-08-19T01:38:44.213Z,61.93
2022-08-19T01:41:12.671Z,61.57
2022-08-19T01:44:13.241Z,61.34
2022-08-19T01:46:26.285Z,61.56
2022-08-19T01:48:52.953Z,61.47
2022-08-19T01:51:19.533Z,62.11
2022-08-19T01:53:49.185Z,62.49
2022-08-19T01:56:16.747Z,62.11
2022-08-19T01:58:50.312Z,62.09
2022-08-19T02:01:16.944Z,61.54
2022-08-19T02:03:43.711Z,61.93
2022-08-19T02:06:10.325Z,62.83
2022-08-19T02:08:40.077Z,62.66
2022-08-19T02:11:07.615Z,62.44
2022-08-19T02:13:35.767Z,62.34
2022-08-19T02:16:04.462Z,61.93
2022-08-19T02:18:31.488Z,61.19
2022-08-19T02:20:58.125Z,60.63
2022-08-19T02:23:24.881Z,60.47
2022-08-19T02:25:52.869Z,60.51
2022-08-19T02:28:19.428Z,60.26
2022-08-19T02:30:49.003Z,59.93
2022-08-19T02:33:16.105Z,60.30
2022-08-19T02:35:44.323Z,60.26
2022-08-19T02:38:29.238Z,59.89
2022-08-19T02:41:01.616Z,60.73
2022-08-19T02:43:33.870Z,60.57
2022-08-19T02:46:02.114Z,60.90
2022-08-19T02:48:28.867Z,60.88
2022-08-19T02:50:58.335Z,60.94
2022-08-19T02:53:28.391Z,60.44
2022-08-19T02:55:54.974Z,60.96
2022-08-19T02:58:22.842Z,60.46
2022-08-19T03:00:52.462Z,60.40
2022-08-19T03:03:19.877Z,60.77
2022-08-19T03:05:56.190Z,60.44
2022-08-19T03:08:26.819Z,61.32
2022-08-19T03:10:54.240Z,61.40
2022-08-19T03:13:20.837Z,61.13
2022-08-19T03:15:48.713Z,61.61
2022-08-19T03:18:16.418Z,61.35
2022-08-19T03:20:47.357Z,61.85
2022-08-19T03:23:14.846Z,60.41
2022-08-19T03:25:44.110Z,59.90
2022-08-19T03:28:13.355Z,60.31
2022-08-19T03:30:43.581Z,59.58
2022-08-19T03:33:17.960Z,60.55
2022-08-19T03:35:46.087Z,59.81
2022-08-19T03:38:12.669Z,61.01
2022-08-19T03:40:39.345Z,60.91
2022-08-19T03:43:06.982Z,60.66
2022-08-19T03:45:33.539Z,60.10
2022-08-19T03:48:00.116Z,60.65
2022-08-19T03:50:26.662Z,60.81
2022-08-19T03:52:53.642Z,60.82
2022-08-19T03:55:20.509Z,60.57
2022-08-19T03:57:49.508Z,60.34
2022-08-19T04:00:16.858Z,60.33
2022-08-19T04:02:58.621Z,60.13
2022-08-19T04:05:29.579Z,59.80
2022-08-19T04:07:59.693Z,60.95
2022-08-19T04:10:26.418Z,60.20
2022-08-19T04:12:53.080Z,61.38
2022-08-19T04:15:20.504Z,62.19
2022-08-19T04:17:47.261Z,61.52
2022-08-19T04:20:13.820Z,62.00
2022-08-19T04:22:40.422Z,61.60
2022-08-19T04:25:07.174Z,62.26
2022-08-19T04:27:34.305Z,62.05
2022-08-19T04:30:00.873Z,62.29
2022-08-19T04:32:27.481Z,61.74
2022-08-19T04:35:02.423Z,60.63
2022-08-19T04:37:45.201Z,60.92
2022-08-19T04:40:30.393Z,60.70
2022-08-19T04:42:57.336Z,60.84
2022-08-19T04:45:23.997Z,61.11
2022-08-19T04:47:58.476Z,60.86
2022-08-19T04:50:27.708Z,61.08
2022-08-19T04:52:54.763Z,60.35
2022-08-19T04:55:21.577Z,60.55
2022-08-19T04:57:48.240Z,60.44
2022-08-19T05:00:14.896Z,60.19
2022-08-19T05:02:41.566Z,60.09
2022-08-19T05:05:08.616Z,60.41
2022-08-19T05:07:35.744Z,60.89
2022-08-19T05:10:03.803Z,60.55
2022-08-19T05:12:30.493Z,60.29
2022-08-19T05:14:59.085Z,60.85
2022-08-19T05:17:29.429Z,61.58
2022-08-19T05:20:15.706Z,62.32
2022-08-19T05:22:43.929Z,61.59
2022-08-19T05:25:14.545Z,60.64
2022-08-19T05:27:42.773Z,60.93
2022-08-19T05:30:10.663Z,62.54
2022-08-19T05:32:37.414Z,61.17
2022-08-19T05:35:05.179Z,60.25
2022-08-19T05:37:31.771Z,60.28
2022-08-19T05:39:58.361Z,60.95
2022-08-19T05:42:25.020Z,61.06
2022-08-19T05:44:51.821Z,60.09
2022-08-19T05:47:20.656Z,59.98
2022-08-19T05:49:48.572Z,60.64
2022-08-19T05:52:18.891Z,60.21
2022-08-19T05:54:50.867Z,61.52
2022-08-19T05:57:19.938Z,61.47
2022-08-19T05:59:49.199Z,61.52
2022-08-19T06:02:16.011Z,59.91
2022-08-19T06:04:43.804Z,59.65
2022-08-19T06:07:12.247Z,59.74
2022-08-19T06:09:40.872Z,60.41
2022-08-19T06:12:08.079Z,59.96
2022-08-19T06:14:41.676Z,60.15
2022-08-19T06:17:09.187Z,61.64
2022-08-19T06:19:40.599Z,63.17
2022-08-19T06:22:08.596Z,62.24
2022-08-19T06:24:36.345Z,61.18
2022-08-19T06:27:04.116Z,61.31
2022-08-19T06:29:31.074Z,62.24
2022-08-19T06:31:59.768Z,61.06
2022-08-19T06:34:28.841Z,61.65
2022-08-19T06:36:56.927Z,60.82
2022-08-19T06:39:27.053Z,60.59
2022-08-19T06:41:58.945Z,60.15
2022-08-19T06:44:42.832Z,60.20
2022-08-19T06:47:23.396Z,60.19
2022-08-19T06:50:02.933Z,60.33
2022-08-19T06:52:34.067Z,60.30
2022-08-19T06:55:02.112Z,60.71
2022-08-19T06:57:34.124Z,60.98
2022-08-19T07:00:01.171Z,60.69
2022-08-19T07:02:27.819Z,60.49
2022-08-19T07:04:54.475Z,60.00
2022-08-19T07:07:22.060Z,60.12
2022-08-19T07:09:58.607Z,60.59
2022-08-19T07:12:35.686Z,60.66
2022-08-19T07:15:05.247Z,60.89
2022-08-19T07:17:34.556Z,60.85
2022-08-19T07:20:05.355Z,61.27
2022-08-19T07:22:38.514Z,60.72
2022-08-19T07:25:08.638Z,61.00
2022-08-19T07:27:35.745Z,60.59
2022-08-19T07:30:02.724Z,61.21
2022-08-19T07:32:29.320Z,60.44
2022-08-19T07:34:57.139Z,60.48
2022-08-19T07:37:31.989Z,60.40
2022-08-19T07:39:59.932Z,60.68
2022-08-19T07:42:27.500Z,60.77
2022-08-19T07:44:54.085Z,60.87
2022-08-19T07:47:47.504Z,61.23
2022-08-19T07:50:10.445Z,60.51
2022-08-19T07:52:39.502Z,60.84
2022-08-19T07:55:41.892Z,60.70
2022-08-19T07:57:58.446Z,61.18
2022-08-19T08:00:25.077Z,61.39
2022-08-19T08:02:52.992Z,61.64
2022-08-19T08:05:43.616Z,61.30
2022-08-19T08:08:30.173Z,61.59
2022-08-19T08:10:57.533Z,62.52
2022-08-19T08:13:25.485Z,63.63
2022-08-19T08:15:54.743Z,63.53
2022-08-19T08:18:23.229Z,63.17
2022-08-19T08:20:55.931Z,64.09
2022-08-19T08:23:29.586Z,63.37
2022-08-19T08:25:59.029Z,63.67
2022-08-19T08:28:29.811Z,63.14
2022-08-19T08:30:58.051Z,63.49
2022-08-19T08:33:32.701Z,61.80
2022-08-19T08:36:03.787Z,61.44
2022-08-19T08:38:38.356Z,62.00
2022-08-19T08:41:23.541Z,61.25
2022-08-19T08:43:53.083Z,60.90
2022-08-19T08:46:34.979Z,61.30
2022-08-19T08:49:21.350Z,60.59
2022-08-19T08:51:59.586Z,61.80
2022-08-19T08:54:34.718Z,62.11
2022-08-19T08:57:05.163Z,60.99
2022-08-19T08:59:37.735Z,61.13
2022-08-19T09:02:04.369Z,61.10
2022-08-19T09:04:30.985Z,61.80
2022-08-19T09:07:34.483Z,61.55
2022-08-19T09:10:08.017Z,61.85
2022-08-19T09:13:02.150Z,61.41
2022-08-19T09:15:41.311Z,61.54
2022-08-19T09:18:09.615Z,61.17
2022-08-19T09:20:42.591Z,61.12
2022-08-19T09:23:10.443Z,61.11
2022-08-19T09:25:37.480Z,62.16
2022-08-19T09:28:05.677Z,61.54
2022-08-19T09:30:42.775Z,61.91
2022-08-19T09:33:09.690Z,62.52
2022-08-19T09:35:49.447Z,61.49
2022-08-19T09:38:20.163Z,60.87
2022-08-19T09:40:46.740Z,61.43
2022-08-19T09:43:13.678Z,61.10
2022-08-19T09:45:40.693Z,61.73
2022-08-19T09:48:07.291Z,61.74
2022-08-19T09:50:35.075Z,62.27
2022-08-19T09:53:01.700Z,62.47
2022-08-19T09:55:31.160Z,62.96
2022-08-19T09:58:02.940Z,62.75
2022-08-19T10:00:31.709Z,64.84
2022-08-19T10:02:58.678Z,62.25
2022-08-19T10:05:43.922Z,62.33
2022-08-19T10:08:13.728Z,61.96
2022-08-19T10:10:46.326Z,62.63
2022-08-19T10:13:16.219Z,62.35
2022-08-19T10:15:47.465Z,61.07
2022-08-19T10:18:17.781Z,61.28
2022-08-19T10:20:46.381Z,61.23
2022-08-19T10:23:19.121Z,61.10
2022-08-19T10:25:46.222Z,60.94
2022-08-19T10:28:14.898Z,61.35
2022-08-19T10:30:42.870Z,61.69
2022-08-19T10:33:11.324Z,63.23
2022-08-19T10:35:56.481Z,61.71
2022-08-19T10:38:31.471Z,61.17
2022-08-19T10:40:59.517Z,62.44
2022-08-19T10:43:26.449Z,61.22
2022-08-19T10:45:56.740Z,62.72
2022-08-19T10:48:23.389Z,62.01
2022-08-19T10:51:08.770Z,60.97
2022-08-19T10:53:35.504Z,60.68
2022-08-19T10:56:21.024Z,61.15
2022-08-19T10:58:48.059Z,60.88
2022-08-19T11:01:14.776Z,61.00
2022-08-19T11:03:41.394Z,61.06
2022-08-19T11:06:09.204Z,61.56
2022-08-19T11:08:38.522Z,61.63
2022-08-19T11:11:07.015Z,62.23
2022-08-19T11:13:38.155Z,62.28
2022-08-19T11:16:10.962Z,62.35
2022-08-19T11:18:39.443Z,61.96
2022-08-19T11:21:25.892Z,62.42
2022-08-19T11:23:55.200Z,63.23
2022-08-19T11:26:22.631Z,62.27
2022-08-19T11:28:51.822Z,62.51
2022-08-19T11:31:21.374Z,64.36
2022-08-19T11:33:52.365Z,64.65
2022-08-19T11:36:19.940Z,67.06
2022-08-19T11:38:49.180Z,67.12
2022-08-19T11:41:18.352Z,65.35
2022-08-19T11:43:45.025Z,64.38
2022-08-19T11:46:14.971Z,63.52
2022-08-19T11:48:41.895Z,63.37
2022-08-19T11:51:11.850Z,64.08
2022-08-19T11:53:39.169Z,65.42
2022-08-19T11:56:07.277Z,67.61
2022-08-19T11:58:33.992Z,68.46
2022-08-19T12:01:00.634Z,67.96
2022-08-19T12:03:27.631Z,66.33
2022-08-19T12:05:54.521Z,67.23
2022-08-19T12:08:21.421Z,67.88
2022-08-19T12:10:48.098Z,69.30
2022-08-19T12:13:19.747Z,68.85
2022-08-19T12:15:48.747Z,68.68
2022-08-19T12:18:15.878Z,69.54
2022-08-19T12:20:43.844Z,71.36
2022-08-19T12:23:11.231Z,71.95
2022-08-19T12:25:39.033Z,71.82
2022-08-19T12:28:05.648Z,71.67
2022-08-19T12:30:32.214Z,72.35
2022-08-19T12:32:58.806Z,71.14
2022-08-19T12:35:25.436Z,72.19
2022-08-19T12:37:56.562Z,73.61
2022-08-19T12:40:26.393Z,72.00
2022-08-19T12:42:54.509Z,71.46
2022-08-19T12:45:21.124Z,73.40
2022-08-19T12:47:49.678Z,72.62
2022-08-19T12:50:16.545Z,73.58
2022-08-19T12:52:43.506Z,73.56
2022-08-19T12:55:11.567Z,74.16
2022-08-19T12:57:38.589Z,73.88
2022-08-19T13:00:12.847Z,73.04
2022-08-19T13:02:41.644Z,72.25
2022-08-19T13:05:12.196Z,73.67
2022-08-19T13:07:40.499Z,73.81
2022-08-19T13:10:09.350Z,72.95
2022-08-19T13:12:36.305Z,73.14
2022-08-19T13:15:03.631Z,72.72
2022-08-19T13:17:38.162Z,72.65
2022-08-19T13:20:07.231Z,72.58
2022-08-19T13:22:33.951Z,73.40
2022-08-19T13:25:00.526Z,72.51
2022-08-19T13:27:27.129Z,73.24
2022-08-19T13:30:12.088Z,73.73
2022-08-19T13:32:57.440Z,73.44
2022-08-19T13:35:24.022Z,73.58
2022-08-19T13:37:50.656Z,73.17
2022-08-19T13:40:20.850Z,73.37
2022-08-19T13:42:50.296Z,72.02
2022-08-19T13:45:20.675Z,72.02
2022-08-19T13:47:55.841Z,71.99
2022-08-19T13:50:32.280Z,71.11
2022-08-19T13:52:59.466Z,70.73
2022-08-19T13:55:27.742Z,70.81
2022-08-19T13:57:56.434Z,72.42
2022-08-19T14:00:27.390Z,73.07
2022-08-19T14:02:56.767Z,72.95
2022-08-19T14:05:24.219Z,74.36
2022-08-19T14:07:51.411Z,73.66
2022-08-19T14:10:19.754Z,73.98
2022-08-19T14:12:47.301Z,74.00
2022-08-19T14:15:15.516Z,74.31
2022-08-19T14:17:44.321Z,74.83
2022-08-19T14:20:17.765Z,74.70
2022-08-19T14:22:47.218Z,74.21
2022-08-19T14:25:19.993Z,74.19
2022-08-19T14:27:47.141Z,75.25
2022-08-19T14:30:17.010Z,75.23
2022-08-19T14:32:46.526Z,74.82
2022-08-19T14:35:15.237Z,74.69
2022-08-19T14:37:45.418Z,74.23
2022-08-19T14:40:15.328Z,74.03
2022-08-19T14:42:42.856Z,73.36
2022-08-19T14:45:11.574Z,73.45
2022-08-19T14:47:39.671Z,73.36
2022-08-19T14:50:18.099Z,72.88
2022-08-19T14:52:49.870Z,72.47
2022-08-19T14:55:16.940Z,71.68
2022-08-19T14:57:44.752Z,71.97
2022-08-19T15:00:14.126Z,71.05
2022-08-19T15:02:41.944Z,72.65
2022-08-19T15:05:09.137Z,73.62
2022-08-19T15:07:35.792Z,73.00
2022-08-19T15:10:02.378Z,72.12
2022-08-19T15:12:29.028Z,70.36
2022-08-19T15:14:56.882Z,68.93
2022-08-19T15:17:45.840Z,68.19
2022-08-19T15:20:12.219Z,67.17
2022-08-19T15:22:39.391Z,68.31
2022-08-19T15:25:09.560Z,68.56
2022-08-19T15:27:39.955Z,68.87
2022-08-19T15:30:08.173Z,69.93
2022-08-19T15:32:36.013Z,68.96
2022-08-19T15:35:04.439Z,69.15
2022-08-19T15:37:31.061Z,69.73
2022-08-19T15:39:58.538Z,68.18
2022-08-19T15:42:29.632Z,69.05
2022-08-19T15:45:01.078Z,68.98
2022-08-19T15:47:35.319Z,69.21
2022-08-19T15:50:10.645Z,69.26
2022-08-19T15:52:50.023Z,69.03
2022-08-19T15:55:33.456Z,68.82
2022-08-19T15:58:28.334Z,70.10
2022-08-19T16:01:20.847Z,70.49
2022-08-19T16:04:13.711Z,68.89
2022-08-19T16:06:48.123Z,68.88
2022-08-19T16:09:16.265Z,69.02
2022-08-19T16:11:45.769Z,69.14
2022-08-19T16:14:14.373Z,69.20
2022-08-19T16:16:41.086Z,69.57
2022-08-19T16:19:10.697Z,69.31
2022-08-19T16:21:40.429Z,69.09
2022-08-19T16:24:10.527Z,69.39
2022-08-19T16:26:37.223Z,69.02
2022-08-19T16:29:09.012Z,68.80
2022-08-19T16:31:39.855Z,69.30
2022-08-19T16:34:06.905Z,69.36
2022-08-19T16:36:33.995Z,69.73
2022-08-19T16:39:01.270Z,70.19
2022-08-19T16:41:28.382Z,70.36
2022-08-19T16:43:55.300Z,70.23
2022-08-19T16:46:26.861Z,71.15
2022-08-19T16:48:54.003Z,71.06
2022-08-19T16:51:21.440Z,70.93
2022-08-19T16:53:48.218Z,70.27
2022-08-19T16:56:15.137Z,71.11
2022-08-19T16:58:43.217Z,70.95
2022-08-19T17:01:10.602Z,71.33
2022-08-19T17:03:38.817Z,71.75
2022-08-19T17:06:18.990Z,71.56
2022-08-19T17:08:51.478Z,71.39
2022-08-19T17:11:19.845Z,70.96
2022-08-19T17:13:47.956Z,70.62
2022-08-19T17:16:24.554Z,70.18
2022-08-19T17:18:57.268Z,70.35
2022-08-19T17:21:28.236Z,69.39
2022-08-19T17:23:56.470Z,69.31
2022-08-19T17:26:25.263Z,69.80
2022-08-19T17:28:54.395Z,69.19
2022-08-19T17:31:23.663Z,69.47
2022-08-19T17:33:51.278Z,68.83
2022-08-19T17:36:26.351Z,69.48
2022-08-19T17:38:55.243Z,69.02
2022-08-19T17:41:24.196Z,68.91
2022-08-19T17:43:51.419Z,68.98
2022-08-19T17:46:19.314Z,68.87
2022-08-19T17:48:52.717Z,68.84
2022-08-19T17:51:42.472Z,68.73
2022-08-19T17:54:16.091Z,68.64
2022-08-19T17:56:43.746Z,68.51
2022-08-19T17:59:13.817Z,68.83
2022-08-19T18:01:52.658Z,68.87
2022-08-19T18:04:22.069Z,68.70
2022-08-19T18:06:53.806Z,68.83
2022-08-19T18:09:41.266Z,69.63
2022-08-19T18:12:13.759Z,69.85
2022-08-19T18:14:41.126Z,69.87
2022-08-19T18:17:11.230Z,69.97
2022-08-19T18:19:42.267Z,69.05
2022-08-19T18:22:12.018Z,69.49
2022-08-19T18:24:41.506Z,69.46
2022-08-19T18:27:08.106Z,69.44
2022-08-19T18:29:38.287Z,69.77
2022-08-19T18:32:06.605Z,69.72
2022-08-19T18:34:36.451Z,69.58
2022-08-19T18:37:03.052Z,69.70
2022-08-19T18:39:48.382Z,70.13
2022-08-19T18:42:37.618Z,70.45
2022-08-19T18:45:24.519Z,70.39
2022-08-19T18:48:26.564Z,70.58
2022-08-19T18:50:59.746Z,70.72
2022-08-19T18:53:29.692Z,70.57
2022-08-19T18:55:57.638Z,71.07
2022-08-19T18:58:33.707Z,70.76
2022-08-19T19:01:11.284Z,70.83
2022-08-19T19:03:43.579Z,70.64
2022-08-19T19:06:10.272Z,70.69
2022-08-19T19:08:40.888Z,70.23
2022-08-19T19:11:08.851Z,70.31
2022-08-19T19:13:37.549Z,70.25
2022-08-19T19:16:04.468Z,70.23
2022-08-19T19:18:33.290Z,70.17
2022-08-19T19:20:59.928Z,70.30
2022-08-19T19:23:26.531Z,71.29
2022-08-19T19:25:53.104Z,71.22
2022-08-19T19:28:25.582Z,71.06
2022-08-19T19:30:54.233Z,70.15
2022-08-19T19:33:20.901Z,70.07
2022-08-19T19:35:47.533Z,70.30
2022-08-19T19:38:14.396Z,70.44
2022-08-19T19:40:41.085Z,70.22
2022-08-19T19:43:08.288Z,70.20
2022-08-19T19:45:35.345Z,70.10
2022-08-19T19:48:02.122Z,70.73
2022-08-19T19:50:31.245Z,70.84
2022-08-19T19:52:58.346Z,71.35
2022-08-19T19:55:26.528Z,71.08
2022-08-19T19:57:54.322Z,71.69
2022-08-19T20:00:21.804Z,72.49
2022-08-19T20:02:50.891Z,72.41
2022-08-19T20:05:21.162Z,71.03
2022-08-19T20:08:07.723Z,72.59
2022-08-19T20:10:34.776Z,72.27
2022-08-19T20:13:02.846Z,72.17
2022-08-19T20:15:32.023Z,72.14
2022-08-19T20:18:00.003Z,72.54
2022-08-19T20:20:26.877Z,72.76
2022-08-19T20:22:53.982Z,72.63
2022-08-19T20:25:22.156Z,73.27
2022-08-19T20:27:49.294Z,72.80
2022-08-19T20:30:19.439Z,72.76
2022-08-19T20:32:47.584Z,72.54
2022-08-19T20:35:16.286Z,72.73
2022-08-19T20:37:42.941Z,72.15
2022-08-19T20:40:10.367Z,72.19
2022-08-19T20:42:40.825Z,71.85
2022-08-19T20:45:29.388Z,71.42
2022-08-19T20:47:56.655Z,70.47
2022-08-19T20:50:23.301Z,70.89
2022-08-19T20:52:53.395Z,71.62
2022-08-19T20:55:21.948Z,71.37
2022-08-19T20:57:48.615Z,71.62
2022-08-19T21:00:15.585Z,71.07
2022-08-19T21:02:42.189Z,71.45
2022-08-19T21:05:09.046Z,70.78
2022-08-19T21:07:39.106Z,70.42
2022-08-19T21:10:07.531Z,70.74
2022-08-19T21:12:34.181Z,70.86
2022-08-19T21:15:00.755Z,71.39
2022-08-19T21:17:27.349Z,70.98
2022-08-19T21:19:53.896Z,70.92
2022-08-19T21:22:20.461Z,71.07
2022-08-19T21:24:47.018Z,71.41
2022-08-19T21:27:13.716Z,71.83
2022-08-19T21:29:42.068Z,71.65
2022-08-19T21:32:11.077Z,71.97
2022-08-19T21:34:40.758Z,71.93
2022-08-19T21:37:11.758Z,72.22
2022-08-19T21:39:52.219Z,72.21
2022-08-19T21:42:18.925Z,71.60
2022-08-19T21:44:46.088Z,71.96
2022-08-19T21:47:12.904Z,70.93
2022-08-19T21:49:40.051Z,71.37
2022-08-19T21:52:06.912Z,70.89
2022-08-19T21:54:38.305Z,71.08
2022-08-19T21:57:10.666Z,70.78
2022-08-19T21:59:39.840Z,70.56
2022-08-19T22:02:22.043Z,70.63
2022-08-19T22:04:50.168Z,70.57
2022-08-19T22:07:18.152Z,70.47
2022-08-19T22:09:45.901Z,70.67
2022-08-19T22:12:23.451Z,70.84
2022-08-19T22:14:51.681Z,70.61
2022-08-19T22:17:19.184Z,71.13
2022-08-19T22:19:46.119Z,70.68
2022-08-19T22:22:12.824Z,70.79
2022-08-19T22:24:39.448Z,71.20
2022-08-19T22:27:06.787Z,71.07
2022-08-19T22:29:36.480Z,71.37
2022-08-19T22:32:26.691Z,71.43
2022-08-19T22:34:51.827Z,70.57
2022-08-19T22:37:18.491Z,71.24
2022-08-19T22:39:45.408Z,71.22
2022-08-19T22:42:12.144Z,71.00
2022-08-19T22:44:38.684Z,71.12
2022-08-19T22:47:05.378Z,70.63
2022-08-19T22:49:31.934Z,70.69
2022-08-19T22:52:18.852Z,70.04
2022-08-19T22:54:48.017Z,70.39
2022-08-19T22:57:15.390Z,70.29
2022-08-19T22:59:42.947Z,71.07
2022-08-19T23:02:09.940Z,70.74
2022-08-19T23:04:36.653Z,70.67
2022-08-19T23:07:04.664Z,70.72
2022-08-19T23:09:31.205Z,69.71
2022-08-19T23:11:58.293Z,69.07
2022-08-19T23:14:24.882Z,69.44
2022-08-19T23:16:54.164Z,69.72
2022-08-19T23:19:23.778Z,69.88
2022-08-19T23:21:50.488Z,70.25
2022-08-19T23:24:17.170Z,70.21
2022-08-19T23:27:04.013Z,69.83
2022-08-19T23:29:50.066Z,70.64
2022-08-19T23:32:18.191Z,69.99
2022-08-19T23:34:45.295Z,69.13
2022-08-19T23:37:12.548Z,70.48
2022-08-19T23:39:39.152Z,71.05
2022-08-19T23:42:11.444Z,70.76
2022-08-19T23:44:52.033Z,71.21
2022-08-19T23:47:19.759Z,69.51
2022-08-19T23:49:47.440Z,69.40
2022-08-19T23:52:14.018Z,70.36
2022-08-19T23:54:43.151Z,70.99
2022-08-19T23:57:13.480Z,71.35
2022-08-19T23:59:42.515Z,71.17
